Time;durP1;ratioP1;P1;durP2;ratioP2;P2;SDS_P1;SDS_P2;PMS_P1;PMS_P2;Temp;Humidity;BMP_temperature;BMP_pressure;BME280_temperature;BME280_humidity;BME280_pressure;Samples;Min_cycle;Max_cycle;Signal;HPM_P1;HPM_P2
2022/02/07 00:00:44;;;;;;;0.30;0.20;;;;;;;;;;5057772;28;20487;-92
2022/02/07 00:03:19;;;;;;;2.27;0.50;;;;;;;;;;5046271;28;20460;-93
2022/02/07 00:05:47;;;;;;;0.40;0.20;;;;;;;;;;5072792;28;20471;-92
2022/02/07 00:08:15;;;;;;;0.40;0.30;;;;;;;;;;5051396;28;20849;-92
2022/02/07 00:10:43;;;;;;;0.40;0.30;;;;;;;;;;5075439;28;20931;-92
2022/02/07 00:13:10;;;;;;;0.30;0.20;;;;;;;;;;5077430;28;20498;-92
2022/02/07 00:15:37;;;;;;;0.30;0.20;;;;;;;;;;5076919;28;20451;-92
2022/02/07 00:18:05;;;;;;;0.30;0.20;;;;;;;;;;5072946;28;20433;-89
2022/02/07 00:20:32;;;;;;;0.40;0.30;;;;;;;;;;5077007;28;20488;-93
2022/02/07 00:23:00;;;;;;;0.30;0.20;;;;;;;;;;5075878;28;20456;-91
2022/02/07 00:25:28;;;;;;;0.60;0.33;;;;;;;;;;5079396;28;20448;-92
2022/02/07 00:27:55;;;;;;;0.80;0.30;;;;;;;;;;5085468;28;20799;-95
2022/02/07 00:30:23;;;;;;;0.30;0.20;;;1.60;99.90;;;;;;5076854;28;20460;-93
2022/02/07 00:32:51;;;;;;;2.00;0.50;;;;;;;;;;5080014;28;20454;-95
2022/02/07 00:35:21;;;;;;;0.30;0.20;;;;;;;;;;5076300;28;20453;-94
2022/02/07 00:37:50;;;;;;;0.77;0.30;;;1.70;99.90;;;;;;5084858;28;20481;-94
2022/02/07 00:43:25;;;;;;;0.67;0.30;;;;;;;;;;5081412;28;20440;-94
2022/02/07 00:45:55;;;;;;;0.30;0.20;;;;;;;;;;5078774;28;20447;-94
2022/02/07 00:48:24;;;;;;;0.70;0.30;;;;;;;;;;5075914;28;20463;-93
2022/02/07 00:50:52;;;;;;;0.40;0.30;;;1.70;99.90;;;;;;5081961;28;20508;-92
2022/02/07 00:53:19;;;;;;;0.40;0.30;;;1.70;99.90;;;;;;5081187;28;20442;-92
2022/02/07 00:55:48;;;;;;;0.30;0.20;;;;;;;;;;5082203;28;21014;-93
2022/02/07 00:58:15;;;;;;;0.83;0.30;;;;;;;;;;5081504;28;20448;-91
2022/02/07 01:00:42;;;;;;;0.30;0.20;;;;;;;;;;5073582;28;20486;-93
2022/02/07 01:03:09;;;;;;;0.30;0.20;;;;;;;;;;5076314;28;20445;-93
2022/02/07 01:05:37;;;;;;;0.67;0.30;;;;;;;;;;5073207;28;20460;-91
2022/02/07 01:08:05;;;;;;;0.40;0.20;;;;;;;;;;5076036;28;20433;-92
2022/02/07 01:10:40;;;;;;;0.30;0.20;;;;;;;;;;5074422;28;20994;-92
2022/02/07 01:13:22;;;;;;;2.30;0.40;;;2.00;99.90;;;;;;5072951;28;20784;-93
2022/02/07 01:15:58;;;;;;;1.07;0.30;;;;;;;;;;5076562;28;20459;-92
2022/02/07 01:18:47;;;;;;;0.30;0.20;;;;;;;;;;5075346;28;20501;-92
2022/02/07 01:46:30;;;;;;;0.30;0.20;;;2.10;99.90;;;;;;5075027;28;20439;-90
2022/02/07 01:54:39;;;;;;;0.40;0.30;;;;;;;;;;5065473;28;20465;-91
2022/02/07 01:57:09;;;;;;;0.50;0.30;;;2.30;99.90;;;;;;5074881;28;20560;-92
2022/02/07 01:59:37;;;;;;;0.47;0.27;;;2.30;99.90;;;;;;5071788;28;20845;-91
2022/02/07 02:02:07;;;;;;;1.60;0.40;;;2.40;99.90;;;;;;5071881;28;20442;-90
2022/02/07 02:04:34;;;;;;;0.40;0.30;;;;;;;;;;5074323;28;20479;-91
2022/02/07 02:07:01;;;;;;;0.63;0.50;;;;;;;;;;5075232;28;20434;-91
2022/02/07 02:09:29;;;;;;;0.30;0.20;;;;;;;;;;5074596;28;20465;-91
2022/02/07 02:11:57;;;;;;;0.30;0.20;;;;;;;;;;5074850;28;20491;-92
2022/02/07 02:17:46;;;;;;;1.60;0.50;;;2.50;99.90;;;;;;5112366;27;20517;-91
2022/02/07 02:35:01;;;;;;;4.77;0.70;;;;;;;;;;5110727;28;20443;-91
2022/02/07 02:37:20;;;;;;;3.37;0.60;;;;;;;;;;5111151;28;20433;-90
2022/02/07 02:45:29;;;;;;;1.70;0.80;;;;;;;;;;5111423;28;20592;-91
2022/02/07 02:47:58;;;;;;;3.07;1.10;;;;;;;;;;5110638;28;20438;-91
2022/02/07 02:50:31;;;;;;;0.40;0.30;;;;;;;;;;5111149;28;20441;-89
2022/02/07 02:53:00;;;;;;;1.23;0.50;;;2.60;99.90;;;;;;5110966;28;20967;-91
2022/02/07 02:55:29;;;;;;;0.50;0.40;;;2.70;99.90;;;;;;5110893;28;20573;-89
2022/02/07 02:57:56;;;;;;;0.50;0.50;;;;;;;;;;5110948;28;20448;-91
2022/02/07 03:00:23;;;;;;;0.50;0.30;;;;;;;;;;5110881;28;20443;-88
2022/02/07 03:02:50;;;;;;;0.47;0.27;;;;;;;;;;5110665;28;20453;-88
2022/02/07 03:05:18;;;;;;;1.70;0.50;;;;;;;;;;5109716;28;20440;-88
2022/02/07 03:07:45;;;;;;;0.80;0.50;;;;;;;;;;5110202;28;20441;-88
2022/02/07 03:10:22;;;;;;;4.13;0.70;;;2.70;99.90;;;;;;5110486;28;20449;-89
2022/02/07 03:13:01;;;;;;;0.90;0.50;;;2.60;99.90;;;;;;5110723;28;20440;-91
2022/02/07 03:18:13;;;;;;;0.40;0.30;;;;;;;;;;5109119;28;20436;-89
2022/02/07 03:20:40;;;;;;;1.30;0.47;;;;;;;;;;5110230;28;20444;-92
2022/02/07 03:23:07;;;;;;;4.20;0.87;;;;;;;;;;5112604;27;20794;-90
2022/02/07 03:25:34;;;;;;;1.77;0.70;;;;;;;;;;5110296;28;20447;-88
2022/02/07 03:28:03;;;;;;;0.67;0.50;;;2.60;99.90;;;;;;5099641;28;20444;-91
2022/02/07 03:30:30;;;;;;;0.50;0.50;;;;;;;;;;5096186;28;20960;-90
2022/02/07 03:32:57;;;;;;;1.17;0.57;;;;;;;;;;5095189;28;20465;-88
2022/02/07 03:35:25;;;;;;;0.40;0.33;;;;;;;;;;5098573;27;20457;-90
2022/02/07 03:37:52;;;;;;;1.00;0.40;;;;;;;;;;5096408;28;20452;-88
2022/02/07 03:40:19;;;;;;;1.33;0.60;;;;;;;;;;5096432;28;20457;-87
2022/02/07 03:42:46;;;;;;;1.20;0.60;;;;;;;;;;5096291;28;20445;-86
2022/02/07 03:45:14;;;;;;;0.57;0.47;;;2.70;99.90;;;;;;5096104;28;20961;-89
2022/02/07 03:47:41;;;;;;;2.10;0.70;;;;;;;;;;5095898;28;20448;-88
2022/02/07 03:50:10;;;;;;;0.70;0.60;;;2.70;99.90;;;;;;5094846;28;20946;-87
2022/02/07 03:52:38;;;;;;;2.43;0.90;;;2.50;99.90;;;;;;5095524;28;20437;-88
2022/02/07 03:55:05;;;;;;;0.87;0.57;;;;;;;;;;5095821;28;20465;-88
2022/02/07 03:57:32;;;;;;;0.43;0.30;;;;;;;;;;5096210;28;20496;-94
2022/02/07 04:00:00;;;;;;;0.80;0.30;;;;;;;;;;5096871;28;20441;-90
2022/02/07 04:02:29;;;;;;;0.70;0.50;;;;;;;;;;5096419;28;20461;-90
2022/02/07 04:05:09;;;;;;;1.53;0.30;;;;;;;;;;5095759;28;20447;-89
2022/02/07 04:07:36;;;;;;;1.67;0.70;;;;;;;;;;5098541;27;20471;-91
2022/02/07 04:10:04;;;;;;;0.30;0.20;;;;;;;;;;5096343;28;20453;-91
2022/02/07 04:12:31;;;;;;;0.40;0.30;;;;;;;;;;5095970;28;20878;-90
2022/02/07 04:14:58;;;;;;;2.43;0.30;;;;;;;;;;5095543;28;20800;-92
2022/02/07 04:17:28;;;;;;;0.40;0.30;;;;;;;;;;5095852;28;20978;-90
2022/02/07 04:19:59;;;;;;;1.50;0.37;;;1.20;99.90;;;;;;5095234;28;20460;-88
2022/02/07 04:22:29;;;;;;;0.93;0.40;;;;;;;;;;5095882;28;20523;-90
2022/02/07 04:24:56;;;;;;;0.60;0.40;;;;;;;;;;5095085;28;20453;-90
2022/02/07 04:27:23;;;;;;;0.50;0.40;;;;;;;;;;5095217;28;21015;-89
2022/02/07 04:29:50;;;;;;;0.40;0.20;;;;;;;;;;5095338;28;20459;-89
2022/02/07 04:32:17;;;;;;;0.40;0.30;;;;;;;;;;5095168;28;20459;-90
2022/02/07 04:34:44;;;;;;;0.40;0.30;;;;;;;;;;5094698;28;20475;-88
2022/02/07 04:37:12;;;;;;;1.40;0.97;;;1.30;99.90;;;;;;5095176;28;20574;-90
2022/02/07 04:39:39;;;;;;;0.60;0.40;;;;;;;;;;5096402;27;20845;-88
2022/02/07 04:42:10;;;;;;;9.30;0.80;;;;;;;;;;5095315;28;20447;-89
2022/02/07 04:44:44;;;;;;;1.03;0.40;;;;;;;;;;5095303;28;20531;-89
2022/02/07 04:47:19;;;;;;;0.93;0.30;;;;;;;;;;5095027;28;20495;-90
2022/02/07 04:50:08;;;;;;;1.07;0.80;;;;;;;;;;5094270;28;20509;-89
2022/02/07 04:52:57;;;;;;;1.37;0.67;;;1.30;99.90;;;;;;5094901;28;20948;-89
2022/02/07 04:55:35;;;;;;;0.87;0.33;;;;;;;;;;5094784;28;20457;-89
2022/02/07 04:58:09;;;;;;;2.50;0.30;;;;;;;;;;5095368;28;20836;-89
2022/02/07 05:00:45;;;;;;;3.20;0.40;;;;;;;;;;5094628;28;20447;-88
2022/02/07 05:03:16;;;;;;;1.23;0.50;;;;;;;;;;5093769;28;20455;-88
2022/02/07 05:13:59;;;;;;;2.20;0.60;;;;;;;;;;5094941;28;20460;-89
2022/02/07 05:16:28;;;;;;;2.10;0.50;;;;;;;;;;5094359;28;20522;-89
2022/02/07 05:18:57;;;;;;;3.17;0.50;;;;;;;;;;5093372;28;20943;-89
2022/02/07 05:21:25;;;;;;;6.70;0.70;;;1.20;99.90;;;;;;5094596;28;20445;-89
2022/02/07 05:23:54;;;;;;;6.97;1.07;;;1.30;99.90;;;;;;5094678;28;20447;-87
2022/02/07 05:26:22;;;;;;;1.10;0.57;;;1.30;99.90;;;;;;5094138;28;20455;-89
2022/02/07 05:28:50;;;;;;;1.07;0.60;;;;;;;;;;5094224;28;20460;-89
2022/02/07 05:31:20;;;;;;;4.43;0.93;;;;;;;;;;5094285;28;20475;-90
2022/02/07 05:33:47;;;;;;;0.57;0.43;;;;;;;;;;5093097;28;20547;-90
2022/02/07 05:36:15;;;;;;;2.40;0.70;;;;;;;;;;5093873;28;20483;-89
2022/02/07 05:38:46;;;;;;;1.23;0.40;;;;;;;;;;5094033;28;20443;-88
2022/02/07 05:41:16;;;;;;;1.40;0.47;;;;;;;;;;5094314;28;20554;-89
2022/02/07 05:43:46;;;;;;;3.80;0.80;;;;;;;;;;5093819;28;20458;-89
2022/02/07 05:46:13;;;;;;;0.50;0.20;;;;;;;;;;5093887;28;20455;-89
2022/02/07 05:48:40;;;;;;;2.13;0.63;;;;;;;;;;5093006;28;20939;-88
2022/02/07 05:51:08;;;;;;;3.43;0.50;;;;;;;;;;5093838;28;20449;-91
2022/02/07 05:53:35;;;;;;;0.80;0.43;;;;;;;;;;5094143;28;20476;-89
2022/02/07 05:56:02;;;;;;;4.27;0.70;;;;;;;;;;5096579;27;20814;-90
2022/02/07 05:58:30;;;;;;;3.63;0.97;;;;;;;;;;5096729;27;20457;-92
2022/02/07 06:00:58;;;;;;;0.50;0.40;;;;;;;;;;5094273;28;20450;-91
2022/02/07 06:03:25;;;;;;;8.43;1.13;;;;;;;;;;5093327;28;20455;-90
2022/02/07 06:05:52;;;;;;;0.90;0.80;;;;;;;;;;5093569;28;20449;-90
2022/02/07 06:08:19;;;;;;;5.80;0.73;;;;;;;;;;5094022;28;20471;-91
2022/02/07 06:10:47;;;;;;;7.73;1.77;;;;;;;;;;5094082;28;20947;-90
2022/02/07 06:13:16;;;;;;;4.23;0.70;;;;;;;;;;5097274;28;20488;-89
2022/02/07 06:15:44;;;;;;;1.67;0.80;;;1.50;99.90;;;;;;5093517;28;20818;-91
2022/02/07 06:18:14;;;;;;;2.33;0.63;;;;;;;;;;5092891;28;20506;-89
2022/02/07 06:20:41;;;;;;;3.47;0.80;;;;;;;;;;5094104;28;20460;-91
2022/02/07 06:23:08;;;;;;;5.70;1.03;;;;;;;;;;5093684;28;20443;-90
2022/02/07 06:25:36;;;;;;;1.37;0.50;;;;;;;;;;5093451;28;20513;-88
2022/02/07 06:28:03;;;;;;;6.37;1.17;;;;;;;;;;5093289;28;20935;-89
2022/02/07 06:30:30;;;;;;;1.93;1.10;;;;;;;;;;5094273;28;20459;-90
2022/02/07 06:32:58;;;;;;;0.50;0.40;;;1.80;99.90;;;;;;5092215;28;20895;-87
2022/02/07 06:35:25;;;;;;;1.60;0.73;;;;;;;;;;5093548;28;20440;-89
2022/02/07 06:37:52;;;;;;;1.93;0.80;;;;;;;;;;5093706;28;20490;-89
2022/02/07 06:40:20;;;;;;;2.40;0.90;;;;;;;;;;5093560;28;20775;-89
2022/02/07 06:42:47;;;;;;;2.93;0.43;;;;;;;;;;5093170;28;20861;-88
2022/02/07 06:45:14;;;;;;;0.73;0.40;;;;;;;;;;5093214;28;20441;-88
2022/02/07 06:47:42;;;;;;;0.90;0.50;;;;;;;;;;5093505;28;20445;-90
2022/02/07 06:50:10;;;;;;;0.50;0.20;;;1.80;99.90;;;;;;5092239;28;20467;-87
2022/02/07 06:52:38;;;;;;;6.63;1.00;;;;;;;;;;5092926;28;20475;-89
2022/02/07 06:55:06;;;;;;;1.07;0.60;;;1.60;99.90;;;;;;5092902;28;20798;-88
2022/02/07 06:57:33;;;;;;;0.77;0.40;;;;;;;;;;5092464;28;20497;-88
2022/02/07 07:00:03;;;;;;;6.83;0.70;;;;;;;;;;5092710;28;20470;-88
2022/02/07 07:02:30;;;;;;;1.23;0.50;;;;;;;;;;5093766;28;20820;-88
2022/02/07 07:05:04;;;;;;;2.30;0.97;;;;;;;;;;5095331;28;20456;-88
2022/02/07 07:07:33;;;;;;;2.97;1.00;;;;;;;;;;5096702;28;20505;-87
2022/02/07 07:10:00;;;;;;;0.60;0.50;;;;;;;;;;5096730;28;20920;-89
2022/02/07 07:12:29;;;;;;;2.70;0.80;;;;;;;;;;5096553;28;20449;-90
2022/02/07 07:15:07;;;;;;;4.93;1.20;;;;;;;;;;5096413;28;20537;-87
2022/02/07 07:17:34;;;;;;;6.07;0.80;;;;;;;;;;5098354;27;20484;-87
2022/02/07 07:20:02;;;;;;;4.63;1.00;;;;;;;;;;5095640;28;20464;-88
2022/02/07 07:22:31;;;;;;;2.63;0.30;;;;;;;;;;5098590;27;20928;-85
2022/02/07 07:25:00;;;;;;;2.60;0.60;;;;;;;;;;5096313;28;20934;-88
2022/02/07 07:27:32;;;;;;;0.93;0.83;;;;;;;;;;5096287;28;20543;-87
2022/02/07 07:29:59;;;;;;;2.63;0.60;;;;;;;;;;5096117;28;20448;-90
2022/02/07 07:32:29;;;;;;;1.87;1.40;;;;;;;;;;5096245;28;20960;-89
2022/02/07 07:34:56;;;;;;;4.83;1.27;;;;;;;;;;5094886;28;20844;-90
2022/02/07 07:37:24;;;;;;;9.40;0.90;;;;;;;;;;5095856;28;20541;-89
2022/02/07 07:39:51;;;;;;;4.10;0.80;;;;;;;;;;5096148;28;20445;-87
2022/02/07 07:42:20;;;;;;;3.40;0.77;;;2.10;99.90;;;;;;5096469;28;20498;-90
2022/02/07 07:44:48;;;;;;;1.70;0.67;;;;;;;;;;5096174;28;20460;-89
2022/02/07 07:47:21;;;;;;;3.40;1.03;;;;;;;;;;5096243;28;20544;-91
2022/02/07 07:49:55;;;;;;;1.87;0.50;;;;;;;;;;5095021;28;20455;-91
2022/02/07 07:52:31;;;;;;;4.83;1.23;;;;;;;;;;5095770;28;20878;-91
2022/02/07 07:55:22;;;;;;;1.67;0.60;;;;;;;;;;5096208;28;20466;-89
2022/02/07 08:03:20;;;;;;;1.80;0.70;;;2.80;99.90;;;;;;5073952;28;20445;-88
2022/02/07 08:05:52;;;;;;;1.10;0.50;;;;;;;;;;5077383;28;20482;-89
2022/02/07 08:08:25;;;;;;;2.20;0.83;;;3.30;99.90;;;;;;5095169;28;20944;-89
2022/02/07 08:11:01;;;;;;;4.37;0.90;;;3.40;99.90;;;;;;5095160;28;20520;-88
2022/02/07 08:13:31;;;;;;;0.63;0.30;;;3.50;99.90;;;;;;5097425;27;20478;-87
2022/02/07 08:15:59;;;;;;;0.70;0.30;;;;;;;;;;5094666;28;20480;-86
2022/02/07 08:18:31;;;;;;;4.13;0.90;;;3.60;99.90;;;;;;5087159;28;20492;-88
2022/02/07 08:20:59;;;;;;;3.90;0.93;;;;;;;;;;5074566;28;20520;-88
2022/02/07 08:23:26;;;;;;;1.03;0.70;;;;;;;;;;5074840;28;20443;-87
2022/02/07 08:25:54;;;;;;;3.20;1.40;;;;;;;;;;5074633;28;20447;-88
2022/02/07 08:28:21;;;;;;;0.87;0.30;;;;;;;;;;5074175;28;20486;-86
2022/02/07 08:30:49;;;;;;;10.03;0.50;;;3.70;99.90;;;;;;5074470;28;20811;-85
2022/02/07 08:33:16;;;;;;;3.07;0.67;;;;;;;;;;5072740;28;20452;-86
2022/02/07 08:35:44;;;;;;;1.47;0.57;;;;;;;;;;5074344;28;20447;-86
2022/02/07 08:38:11;;;;;;;1.20;0.53;;;;;;;;;;5074342;28;20862;-84
2022/02/07 08:40:38;;;;;;;9.23;0.70;;;;;;;;;;5074293;28;20448;-87
2022/02/07 08:43:05;;;;;;;1.67;0.43;;;;;;;;;;5074122;28;20452;-85
2022/02/07 08:45:33;;;;;;;3.83;0.87;;;;;;;;;;5074232;28;20454;-86
2022/02/07 08:48:01;;;;;;;3.07;0.90;;;4.80;99.90;;;;;;5072855;28;20532;-87
2022/02/07 08:50:29;;;;;;;5.23;0.97;;;4.80;99.90;;;;;;5071237;28;20449;-88
2022/02/07 08:52:57;;;;;;;3.37;1.00;;;;;;;;;;5073836;28;20871;-88
2022/02/07 08:55:29;;;;;;;0.67;0.67;;;;;;;;;;5084322;28;20456;-87
2022/02/07 08:57:59;;;;;;;6.17;1.47;;;;;;;;;;5094226;28;20496;-87
2022/02/07 09:00:39;;;;;;;2.40;0.40;;;;;;;;;;5093938;28;20814;-85
2022/02/07 09:03:20;;;;;;;2.43;0.90;;;4.60;99.90;;;;;;5092909;28;20515;-87
2022/02/07 09:05:54;;;;;;;3.37;0.90;;;;;;;;;;5094145;28;20547;-87
2022/02/07 09:08:26;;;;;;;1.47;0.77;;;;;;;;;;5094139;28;20452;-88
2022/02/07 09:10:54;;;;;;;1.73;1.07;;;4.70;99.90;;;;;;5094036;28;20539;-87
2022/02/07 09:13:29;;;;;;;0.50;0.37;;;4.30;99.90;;;;;;5093937;28;20441;-87
2022/02/07 09:16:04;;;;;;;2.10;0.53;;;;;;;;;;5098499;28;20475;-89
2022/02/07 09:18:33;;;;;;;0.90;0.57;;;3.90;99.90;;;;;;5097045;28;20555;-89
2022/02/07 09:21:01;;;;;;;5.90;1.00;;;;;;;;;;5095957;28;20458;-89
2022/02/07 09:23:29;;;;;;;5.00;1.10;;;6.80;99.90;;;;;;5095621;28;20456;-91
2022/02/07 09:25:56;;;;;;;4.70;1.43;;;;;;;;;;5094977;28;20444;-91
2022/02/07 09:28:23;;;;;;;6.63;1.90;;;;;;;;;;5094067;28;20803;-91
2022/02/07 09:30:53;;;;;;;4.43;1.17;;;;;;;;;;5096179;27;20444;-90
2022/02/07 09:33:20;;;;;;;2.63;1.00;;;5.40;99.90;;;;;;5093247;28;20448;-93
2022/02/07 09:35:51;;;;;;;1.37;0.43;;;4.70;99.90;;;;;;5093918;28;20444;-91
2022/02/07 09:38:19;;;;;;;1.97;0.80;;;4.50;99.90;;;;;;5082973;28;20502;-91
2022/02/07 09:40:50;;;;;;;3.30;0.97;;;;;;;;;;5074076;28;20447;-89
2022/02/07 09:43:18;;;;;;;0.40;0.27;;;;;;;;;;5074834;28;21014;-90
2022/02/07 09:45:48;;;;;;;6.60;1.00;;;;;;;;;;5093347;28;20443;-88
2022/02/07 09:48:16;;;;;;;5.20;1.10;;;;;;;;;;5092262;28;20548;-91
2022/02/07 09:50:44;;;;;;;5.63;1.07;;;;;;;;;;5094205;28;20495;-89
2022/02/07 09:53:12;;;;;;;3.73;1.20;;;4.20;99.90;;;;;;5093900;28;20453;-91
2022/02/07 09:55:40;;;;;;;1.63;0.90;;;;;;;;;;5093731;28;20446;-90
2022/02/07 09:58:07;;;;;;;5.87;1.30;;;;;;;;;;5093758;28;20491;-92
2022/02/07 10:00:36;;;;;;;4.73;1.27;;;;;;;;;;5093626;28;20473;-90
2022/02/07 10:03:10;;;;;;;2.40;0.63;;;4.10;99.90;;;;;;5085445;28;20534;-89
2022/02/07 10:05:46;;;;;;;15.00;2.20;;;4.10;99.90;;;;;;5073597;28;20530;-91
2022/02/07 10:08:21;;;;;;;3.33;1.10;;;4.60;99.90;;;;;;5073413;28;20474;-91
2022/02/07 10:11:10;;;;;;;2.80;1.10;;;5.20;99.90;;;;;;5075956;28;20465;-92
2022/02/07 10:13:58;;;;;;;1.50;0.67;;;6.00;99.90;;;;;;5073329;28;20453;-90
2022/02/07 10:16:36;;;;;;;7.33;1.20;;;;;;;;;;5073491;28;20481;-91
2022/02/07 10:36:24;;;;;;;4.27;0.80;;;;;;;;;;5073113;28;20431;-88
2022/02/07 10:39:11;;;;;;;5.60;1.20;;;5.00;99.90;;;;;;5076338;28;21008;-89
2022/02/07 10:41:55;;;;;;;1.53;0.60;;;5.00;99.90;;;;;;5039169;28;20468;-89
2022/02/07 10:44:37;;;;;;;3.50;1.10;;;5.20;99.90;;;;;;5057018;28;20531;-91
2022/02/07 10:47:10;;;;;;;4.23;1.83;;;;;;;;;;5057249;28;20455;-91
2022/02/07 10:49:37;;;;;;;7.47;1.53;;;;;;;;;;5056659;28;20541;-91
2022/02/07 10:52:05;;;;;;;4.57;0.97;;;5.00;99.90;;;;;;5065823;28;20971;-90
2022/02/07 10:54:32;;;;;;;1.67;0.93;;;;;;;;;;5075465;28;20449;-89
2022/02/07 10:57:06;;;;;;;3.70;1.00;;;;;;;;;;5075284;28;20809;-90
2022/02/07 10:59:33;;;;;;;2.87;0.90;;;;;;;;;;5056876;28;20528;-89
2022/02/07 11:02:41;;;;;;;3.50;0.70;;;;;;;;;;5056431;28;20950;-86
2022/02/07 11:04:59;;;;;;;1.40;0.40;;;;;;;;;;5054859;28;20530;-86
2022/02/07 11:07:30;;;;;;;1.70;0.70;;;;;;;;;;5056204;28;20450;-87
2022/02/07 11:10:08;;;;;;;5.93;0.93;;;;;;;;;;5063918;28;20953;-86
2022/02/07 11:13:04;;;;;;;6.53;1.80;;;5.20;99.90;;;;;;5076146;28;20535;-87
2022/02/07 11:15:35;;;;;;;3.70;1.10;;;;;;;;;;5075673;28;20508;-88
2022/02/07 11:18:15;;;;;;;5.10;0.70;;;;;;;;;;5074857;28;20543;-87
2022/02/07 11:21:04;;;;;;;1.20;0.83;;;;;;;;;;5075574;28;20450;-87
2022/02/07 11:23:45;;;;;;;1.90;1.00;;;;;;;;;;5072896;28;20454;-86
2022/02/07 11:26:36;;;;;;;3.70;0.90;;;4.60;99.90;;;;;;5055458;28;20456;-86
2022/02/07 11:29:05;;;;;;;3.43;1.37;;;4.90;99.90;;;;;;5055977;28;20462;-87
2022/02/07 11:31:40;;;;;;;1.40;0.50;;;4.60;99.90;;;;;;5062032;28;20828;-88
2022/02/07 11:34:10;;;;;;;3.80;0.60;;;4.40;99.90;;;;;;5080698;28;20443;-87
2022/02/07 11:36:39;;;;;;;6.90;0.93;;;4.40;99.90;;;;;;5095554;28;20452;-86
2022/02/07 11:39:11;;;;;;;1.90;0.73;;;4.40;99.90;;;;;;5095432;28;20496;-87
2022/02/07 11:42:09;;;;;;;5.20;0.67;;;4.40;99.90;;;;;;5095539;28;20442;-88
2022/02/07 11:45:25;;;;;;;3.63;0.73;;;4.30;99.90;;;;;;5095482;28;20861;-88
2022/02/07 11:48:09;;;;;;;5.07;1.43;;;4.30;99.90;;;;;;5095007;28;20453;-87
2022/02/07 11:50:42;;;;;;;3.60;1.30;;;4.40;99.90;;;;;;5095260;28;20480;-86
2022/02/07 11:53:09;;;;;;;4.43;0.97;;;;;;;;;;5095310;28;20456;-87
2022/02/07 11:55:42;;;;;;;3.03;0.87;;;4.40;99.90;;;;;;5095072;28;20445;-86
2022/02/07 11:58:13;;;;;;;1.13;0.60;;;;;;;;;;5094856;28;20491;-88
2022/02/07 12:00:46;;;;;;;1.20;0.40;;;4.40;99.90;;;;;;5095434;28;20802;-88
2022/02/07 12:03:17;;;;;;;6.70;1.07;;;4.30;99.90;;;;;;5094321;28;20456;-87
2022/02/07 12:05:47;;;;;;;4.13;0.93;;;4.30;99.90;;;;;;5095442;28;20447;-88
2022/02/07 12:08:19;;;;;;;5.73;1.17;;;4.40;99.90;;;;;;5092127;28;20483;-92
2022/02/07 12:11:06;;;;;;;2.73;1.20;;;4.40;99.90;;;;;;5097184;28;20453;-92
2022/02/07 12:13:36;;;;;;;1.17;0.63;;;4.40;99.90;;;;;;5097034;28;20462;-92
2022/02/07 12:16:11;;;;;;;2.53;1.20;;;4.40;99.90;;;;;;5100647;22;20492;-93
2022/02/07 12:18:39;;;;;;;7.30;1.00;;;4.50;99.90;;;;;;5078700;28;20468;-93
2022/02/07 12:21:19;;;;;;;1.60;0.63;;;4.40;99.90;;;;;;5081999;28;20461;-89
2022/02/07 12:23:52;;;;;;;8.63;1.27;;;4.40;99.90;;;;;;5098672;22;20981;-90
2022/02/07 12:26:19;;;;;;;0.70;0.40;;;4.50;99.90;;;;;;5064077;28;20785;-90
2022/02/07 12:28:48;;;;;;;4.00;0.90;;;4.50;99.90;;;;;;5058464;28;20451;-91
2022/02/07 12:31:20;;;;;;;4.33;0.70;;;4.60;99.90;;;;;;5052900;28;20476;-91
2022/02/07 12:33:55;;;;;;;3.90;0.87;;;4.60;99.90;;;;;;5055552;28;20454;-91
2022/02/07 12:36:23;;;;;;;2.57;1.27;;;;;;;;;;5058635;28;20454;-94
2022/02/07 12:38:50;;;;;;;3.37;1.13;;;;;;;;;;5056476;28;20477;-92
2022/02/07 12:41:18;;;;;;;0.80;0.60;;;4.70;99.90;;;;;;5059689;28;20450;-92
2022/02/07 12:43:49;;;;;;;5.60;1.37;;;4.70;99.90;;;;;;5058837;28;20459;-90
2022/02/07 12:46:18;;;;;;;0.50;0.50;;;4.70;99.90;;;;;;5054803;28;20553;-89
2022/02/07 12:48:51;;;;;;;1.50;0.57;;;4.70;99.90;;;;;;5053823;28;20462;-91
2022/02/07 12:51:22;;;;;;;2.83;0.97;;;4.50;99.90;;;;;;5054925;28;20444;-93
2022/02/07 12:53:52;;;;;;;6.80;1.27;;;;;;;;;;5049652;28;20446;-90
2022/02/07 12:56:19;;;;;;;2.43;1.20;;;4.50;99.90;;;;;;5054313;28;20464;-92
2022/02/07 12:58:47;;;;;;;2.10;0.70;;;;;;;;;;5054344;28;20488;-89
2022/02/07 13:01:22;;;;;;;3.60;1.73;;;4.50;99.90;;;;;;5053628;28;20987;-90
2022/02/07 13:03:51;;;;;;;8.20;4.20;;;4.60;99.90;;;;;;5050267;28;20937;-90
2022/02/07 13:06:18;;;;;;;9.27;3.67;;;;;;;;;;5049964;28;20448;-90
2022/02/07 13:08:50;;;;;;;2.07;1.37;;;4.40;99.90;;;;;;5004646;28;20894;-88
2022/02/07 13:11:31;;;;;;;1.40;0.80;;;;;;;;;;5053530;28;20581;-89
2022/02/07 13:13:59;;;;;;;3.50;1.57;;;;;;;;;;5054054;28;20980;-93
2022/02/07 13:16:30;;;;;;;4.43;1.03;;;4.40;99.90;;;;;;5054048;28;20554;-89
2022/02/07 13:19:09;;;;;;;6.00;1.30;;;4.40;99.90;;;;;;5052164;28;20531;-88
2022/02/07 13:21:40;;;;;;;6.73;1.17;;;4.40;99.90;;;;;;5053419;28;20515;-89
2022/02/07 13:24:14;;;;;;;1.10;0.60;;;4.40;99.90;;;;;;5053024;28;20473;-86
2022/02/07 13:26:45;;;;;;;5.07;2.47;;;4.40;99.90;;;;;;5052997;28;20447;-86
2022/02/07 13:29:17;;;;;;;4.40;2.37;;;4.50;99.90;;;;;;5053074;28;20454;-87
2022/02/07 13:31:44;;;;;;;5.53;1.30;;;;;;;;;;5053229;28;20454;-88
2022/02/07 13:34:25;;;;;;;6.50;3.10;;;4.70;99.90;;;;;;5052334;28;20961;-86
2022/02/07 13:36:53;;;;;;;3.43;1.20;;;;;;;;;;5050390;28;20457;-91
2022/02/07 13:39:22;;;;;;;4.43;2.00;;;5.40;99.90;;;;;;5050584;28;20639;-88
2022/02/07 13:42:03;;;;;;;4.00;0.90;;;5.60;99.90;;;;;;5050323;28;20460;-88
2022/02/07 13:44:30;;;;;;;3.20;1.10;;;;;;;;;;5053392;28;20978;-88
2022/02/07 13:47:02;;;;;;;1.53;0.90;;;5.60;99.90;;;;;;5050129;28;20509;-88
2022/02/07 13:49:30;;;;;;;3.03;1.20;;;;;;;;;;5052100;28;20957;-89
2022/02/07 13:51:57;;;;;;;1.43;0.50;;;;;;;;;;5053175;28;20508;-87
2022/02/07 13:54:30;;;;;;;2.53;0.90;;;6.40;99.90;;;;;;5052752;28;20447;-94
2022/02/07 13:56:59;;;;;;;3.30;1.03;;;;;;;;;;5053783;28;20795;-94
2022/02/07 13:59:26;;;;;;;2.30;0.83;;;;;;;;;;5053088;28;20489;-88
2022/02/07 14:01:53;;;;;;;0.93;0.40;;;6.40;99.90;;;;;;5052998;28;20454;-88
2022/02/07 14:04:24;;;;;;;1.83;0.70;;;6.50;99.90;;;;;;5051739;28;20455;-88
2022/02/07 14:07:09;;;;;;;2.37;0.60;;;6.30;99.90;;;;;;5053142;28;20467;-88
2022/02/07 14:09:38;;;;;;;5.03;1.37;;;6.30;99.90;;;;;;5052969;28;20454;-88
2022/02/07 14:12:07;;;;;;;1.73;1.20;;;6.50;99.90;;;;;;5053051;28;20460;-89
2022/02/07 14:14:35;;;;;;;3.00;0.90;;;6.00;99.90;;;;;;5054527;28;20447;-89
2022/02/07 14:17:02;;;;;;;0.90;0.47;;;;;;;;;;5052874;28;20953;-89
2022/02/07 14:19:41;;;;;;;2.77;0.77;;;6.20;99.90;;;;;;5051500;28;20495;-87
2022/02/07 14:22:09;;;;;;;2.03;0.90;;;6.30;99.90;;;;;;5052701;28;20481;-89
2022/02/07 14:24:39;;;;;;;5.97;1.10;;;6.50;99.90;;;;;;5049893;28;20833;-89
2022/02/07 14:27:07;;;;;;;1.33;1.23;;;;;;;;;;5052713;28;20450;-90
2022/02/07 14:29:34;;;;;;;0.70;0.60;;;6.50;99.90;;;;;;5052914;28;20526;-89
2022/02/07 14:32:02;;;;;;;1.87;0.80;;;;;;;;;;5049437;28;20451;-88
2022/02/07 14:34:29;;;;;;;1.40;1.30;;;;;;;;;;5051579;28;20452;-91
2022/02/07 14:36:56;;;;;;;1.97;1.10;;;;;;;;;;5049703;28;20440;-89
2022/02/07 14:39:23;;;;;;;2.40;0.80;;;;;;;;;;5052980;28;20995;-90
2022/02/07 14:41:52;;;;;;;1.80;1.03;;;6.90;99.90;;;;;;5052671;28;20455;-89
2022/02/07 14:44:26;;;;;;;1.93;1.10;;;;;;;;;;5048644;28;20458;-89
2022/02/07 14:47:04;;;;;;;2.97;0.97;;;;;;;;;;5052410;28;20457;-89
2022/02/07 14:49:32;;;;;;;9.13;1.77;;;;;;;;;;5050223;28;20497;-88
2022/02/07 14:52:02;;;;;;;0.97;0.53;;;;;;;;;;5052301;28;20451;-87
2022/02/07 14:54:29;;;;;;;3.40;0.53;;;;;;;;;;5052007;28;20482;-89
2022/02/07 14:56:57;;;;;;;1.60;0.87;;;5.30;99.90;;;;;;5052586;28;20823;-87
2022/02/07 14:59:25;;;;;;;1.30;1.00;;;;;;;;;;5053072;28;20488;-89
2022/02/07 15:01:55;;;;;;;0.73;0.50;;;5.10;99.90;;;;;;5050886;28;20457;-89
2022/02/07 15:04:22;;;;;;;1.03;0.33;;;;;;;;;;5051457;28;20459;-89
2022/02/07 15:06:49;;;;;;;2.10;0.57;;;;;;;;;;5051001;28;20450;-90
2022/02/07 15:09:18;;;;;;;0.77;0.40;;;;;;;;;;5052711;28;20465;-89
2022/02/07 15:11:45;;;;;;;2.70;1.00;;;;;;;;;;5052486;28;20538;-90
2022/02/07 15:14:14;;;;;;;1.40;0.60;;;4.90;99.90;;;;;;5052507;28;20516;-88
2022/02/07 15:16:41;;;;;;;1.50;1.10;;;;;;;;;;5049648;28;20440;-90
2022/02/07 15:19:09;;;;;;;1.20;0.60;;;;;;;;;;5051877;28;20488;-89
2022/02/07 15:21:36;;;;;;;3.70;0.87;;;;;;;;;;5049768;28;20476;-89
2022/02/07 15:24:03;;;;;;;0.60;0.50;;;;;;;;;;5054255;28;20486;-89
2022/02/07 15:26:30;;;;;;;2.90;1.43;;;;;;;;;;5056607;28;20455;-90
2022/02/07 15:28:59;;;;;;;5.33;1.30;;;;;;;;;;5056807;28;20451;-91
2022/02/07 15:31:31;;;;;;;1.50;0.43;;;4.50;99.90;;;;;;5056576;28;20533;-89
2022/02/07 15:33:58;;;;;;;4.53;0.80;;;;;;;;;;5053923;28;20545;-90
2022/02/07 15:36:25;;;;;;;1.33;0.50;;;;;;;;;;5056246;28;20443;-89
2022/02/07 15:38:53;;;;;;;4.37;1.83;;;4.10;99.90;;;;;;5055868;28;20951;-88
2022/02/07 15:41:20;;;;;;;3.17;1.03;;;;;;;;;;5051099;28;20459;-91
2022/02/07 15:43:47;;;;;;;3.07;1.00;;;;;;;;;;5053150;28;20445;-91
2022/02/07 15:46:14;;;;;;;5.40;1.40;;;;;;;;;;5056264;28;20447;-90
2022/02/07 15:48:42;;;;;;;1.67;1.00;;;4.00;99.90;;;;;;5055240;28;20453;-89
2022/02/07 15:51:10;;;;;;;3.03;1.23;;;;;;;;;;5052912;28;20445;-89
2022/02/07 15:53:37;;;;;;;4.87;1.67;;;;;;;;;;5055905;28;20499;-91